Portada
METAR-TAF:

METAR-TAF

Aeroports :

Loei, Tailàndia

latitud: 17-27N, longitud: 101-44E, altitud: 253 m

Observació

L'informe es va fer fa 6 hores i 37 minuts, a les 12:00 UTC
Vent 2 kt del Oest
Temperatura 24°C
Humitat 69%
Pressió 1015 hPa
Visibilitat: 6000 m
Escasses núvols a una alçada de 3000 ft

METAR: VTUL 211200Z 27002KT 6000 FEW030 24/18 Q1015 NOSIG

Hora: 01:37 (18:37 UTC)

Pronòstic

L'informe es va fer fa 1 hora i 37 minuts, a les 17:00 UTC
Pronòstic vàlid del 21 a les 18 UTC al 22 a les 18 UTC
Vent 2 kt del Nord/Nord-Oest
Visibilitat: 6000 m
Escasses núvols a una alçada de 3000 ft
Evolucionant progressivament
l' 21 a les 21 UTC al 21 a les 23 UTC
Visibilitat: 3000 m
boirina
Evolucionant progressivament
l' 22 a les 04 UTC al 22 a les 06 UTC
Visibilitat: 7000 m

TAF: VTUL 211700Z 2118/2218 33002KT 6000 FEW030 BECMG 2121/2123 3000 BR BECMG 2204/2206 7000 NSW

Observacions i pronòstics meteorològics de més de 4000 aeroports (METAR i TAF).

Les estacions disponibles són els punts grocs i vermells al mapa.

Posi el ratolí al punt desitjat per veure el nom de l'estació.

Feu clic per veure les observacions i els pronòstics meteorològics.

Per canviar el mapa: feu clic els botons verds amb una creu de color negre per apropar; al botó verd amb un guió per allunyar la imatge; o en les fletxes verdes per a mapes adjacents.


METAR-TAF: